Terminal Aerodrome Forecast
Issued by NWS

Home | Current Version | Previous Version | Text Only | Print | Product List | Glossary On
Versions: 1 2 3 4 5 6 7 8 9 10 11 12 13 14 15 16 17
621
FTPA31 PHFO 240540
TAFHLI
TAF
PHLI 240540Z 2406/2506 04007KT P6SM VCSH SCT010 BKN080
      TEMPO 2406/2408 BKN015
     FM242000 08011KT P6SM VCSH SCT015 BKN035
     FM250300 08015KT P6SM VCSH SCT015 BKN025=

USA.gov is the U.S. government's official web portal to all federal, state and local government web resources and services.